Wallasey, United Kingdom
Current Conditions -  °F | °C
As of 10:20 AM on Friday 21 Nov 2014 (Local Time) from EGGP Reporting Station
Haze Haze  
Wind Chill: 40°   Ceiling: Unl
Heat Index: 46°   Visibility: 3mi
Dew Point: 41°   Wind: 14mph
Humidity: 81%   Direction: 110°ESE
Pressure: 30.06"   Gusts: NA
Location:  53.42°N, 3.07°W
Report Text: EGGP 211020Z 11012KT 5000 BR FEW026 08/05 Q1018
Loading
Personal Weather Stations






























Interactive Weather Map New forecast layout! Learn more

10-Day Weather Forecast

Advertisements
Track Severe Weather on mobile